Portada
METAR-TAF:

METAR-TAF

Aeroports :

Vladivostok, Rússia

latitud: 43-07N, longitud: 131-56E, altitud: 184 m

Observació

L'informe es va fer fa 12 minuts, a les 22:30 UTC
Vent 4 kt del Nord
Temperatura -16°C
Humitat 84%
Pressió 1025 hPa
Visibilitat 10 km o més

METAR: UHWW 042230Z 35002MPS 9999 NSC M16/M18 Q1025 R25L/810060 NOSIG RMK QFE767

Hora: 08:42 (22:42 UTC)

Pronòstic

L'informe es va fer fa 2 hores i 52 minuts, a les 19:50 UTC
Pronòstic vàlid del 04 a les 21 UTC al 05 a les 21 UTC
Vent 6 kt del Nord
Visibilitat 10 km o més
Temporalment
l' 05 a les 00 UTC al 05 a les 12 UTC
Vent 6 kt del Oest/Sud-Oest
Evolucionant progressivament
l' 05 a les 12 UTC al 05 a les 14 UTC
Vent 6 kt del Nord/Nord-Est

TAF: UHWW 041950Z 0421/0521 36003MPS 9999 NSC TEMPO 0500/0512 24003MPS BECMG 0512/0514 03003MPS

Observacions i pronòstics meteorològics de més de 4000 aeroports (METAR i TAF).

Les estacions disponibles són els punts grocs i vermells al mapa.

Posi el ratolí al punt desitjat per veure el nom de l'estació.

Feu clic per veure les observacions i els pronòstics meteorològics.

Per canviar el mapa: feu clic els botons verds amb una creu de color negre per apropar; al botó verd amb un guió per allunyar la imatge; o en les fletxes verdes per a mapes adjacents.


METAR-TAF: